createdAt,value
2022-09-12T04:38:53.426Z,128.00
2022-09-12T04:39:54.623Z,140.00
2022-09-12T04:40:55.631Z,156.00
2022-09-12T04:41:56.700Z,172.00
2022-09-12T04:42:57.886Z,192.00
2022-09-12T04:44:00.033Z,216.00
2022-09-12T04:45:02.380Z,232.00
2022-09-12T04:46:10.751Z,252.00
2022-09-12T04:47:12.179Z,272.00
2022-09-12T04:48:13.649Z,292.00
2022-09-12T04:49:08.964Z,308.00
2022-09-12T04:51:11.659Z,348.00
2022-09-12T04:52:12.888Z,368.00
2022-09-12T04:53:15.081Z,392.00
2022-09-12T04:54:16.259Z,420.00
2022-09-12T04:55:24.681Z,448.00
2022-09-12T04:56:19.834Z,472.00
2022-09-12T04:57:21.356Z,508.00
2022-09-12T04:58:28.666Z,544.00
2022-09-12T04:59:24.124Z,576.00
2022-09-12T05:00:31.137Z,604.00
2022-09-12T05:01:26.391Z,640.00
2022-09-12T05:02:27.410Z,668.00
2022-09-12T05:03:29.749Z,696.00
2022-09-12T05:04:30.696Z,720.00
2022-09-12T05:05:31.684Z,744.00
2022-09-12T05:06:33.837Z,776.00
2022-09-12T05:07:35.923Z,832.00
2022-09-12T05:08:37.113Z,884.00
2022-09-12T05:09:39.245Z,932.00
2022-09-12T05:10:40.710Z,984.00
2022-09-12T05:12:03.297Z,1048.00
2022-09-12T05:12:44.135Z,1116.00
2022-09-12T05:13:44.584Z,1164.00
2022-09-12T05:14:46.698Z,1200.00
2022-09-12T05:15:49.025Z,1244.00
2022-09-12T05:16:50.517Z,1312.00
2022-09-12T05:17:51.760Z,1392.00
2022-09-12T05:18:52.990Z,1484.00
2022-09-12T05:19:54.183Z,1576.00
2022-09-12T05:20:56.307Z,1672.00
2022-09-12T05:22:04.526Z,1784.00
2022-09-12T05:22:59.652Z,1880.00
2022-09-12T05:24:01.559Z,1992.00
2022-09-12T05:25:02.643Z,2124.00
2022-09-12T05:26:04.754Z,2272.00
2022-09-12T05:27:06.872Z,2432.00
2022-09-12T05:28:08.636Z,2544.00
2022-09-12T05:29:09.819Z,2656.00
2022-09-12T05:30:11.933Z,2696.00
2022-09-12T05:31:14.059Z,2696.00
2022-09-12T05:32:16.260Z,2712.00
2022-09-12T05:33:20.958Z,2752.00
2022-09-12T05:34:20.630Z,2720.00
2022-09-12T05:35:21.809Z,2884.00
2022-09-12T05:36:23.952Z,3100.00
2022-09-12T05:37:26.099Z,3416.00
2022-09-12T05:38:28.212Z,3676.00
2022-09-12T05:39:30.348Z,3820.00
2022-09-12T05:40:31.602Z,3888.00
2022-09-12T05:41:32.837Z,3912.00
2022-09-12T05:42:40.080Z,4020.00
2022-09-12T05:43:35.420Z,4136.00
2022-09-12T05:44:42.654Z,4356.00
2022-09-12T05:45:38.085Z,4544.00
2022-09-12T05:46:39.254Z,4588.00
2022-09-12T05:47:46.559Z,4280.00
2022-09-12T05:48:41.922Z,4040.00
2022-09-12T05:49:42.899Z,4012.00
2022-09-12T05:50:44.094Z,4024.00
2022-09-12T05:51:46.224Z,4096.00
2022-09-12T05:52:47.910Z,4528.00
2022-09-12T05:53:55.193Z,4924.00
2022-09-12T05:54:50.529Z,4628.00
2022-09-12T05:55:52.648Z,4136.00
2022-09-12T05:56:53.795Z,4048.00
2022-09-12T05:57:54.753Z,4112.00
2022-09-12T05:58:56.878Z,4168.00
2022-09-12T06:00:05.483Z,4160.00
2022-09-12T06:01:00.630Z,4104.00
2022-09-12T06:02:01.944Z,4068.00
2022-09-12T06:03:04.107Z,4136.00
2022-09-12T06:04:08.541Z,4280.00
2022-09-12T06:05:07.444Z,4476.00
2022-09-12T06:06:08.651Z,4596.00
2022-09-12T06:07:09.695Z,4824.00
2022-09-12T06:08:11.814Z,4916.00
2022-09-12T06:09:12.968Z,5056.00
2022-09-12T06:10:15.399Z,5116.00
2022-09-12T06:11:16.599Z,5224.00
2022-09-12T06:12:17.828Z,5420.00
2022-09-12T06:13:19.926Z,5764.00
2022-09-12T06:14:22.056Z,6152.00
2022-09-12T06:15:24.396Z,6444.00
2022-09-12T06:16:31.455Z,6492.00
2022-09-12T06:17:26.890Z,6476.00
2022-09-12T06:18:29.011Z,6420.00
2022-09-12T06:19:31.154Z,6292.00
2022-09-12T06:20:32.332Z,6296.00
2022-09-12T06:21:33.648Z,7404.00
2022-09-12T06:22:34.563Z,7044.00
2022-09-12T06:23:36.752Z,11620.00
2022-09-12T06:24:37.949Z,12240.00
2022-09-12T06:25:39.211Z,11240.00
2022-09-12T06:26:40.242Z,7412.00
2022-09-12T06:27:41.157Z,7484.00
2022-09-12T06:28:43.380Z,12608.00
2022-09-12T06:29:45.501Z,7676.00
2022-09-12T06:30:47.643Z,7592.00
2022-09-12T06:31:54.926Z,9164.00
2022-09-12T06:32:50.038Z,8876.00
2022-09-12T06:33:52.159Z,14816.00
2022-09-12T06:35:00.380Z,15392.00
2022-09-12T06:35:55.814Z,12196.00
2022-09-12T06:36:57.014Z,13192.00
2022-09-12T06:37:58.192Z,14880.00
2022-09-12T06:39:00.053Z,14596.00
2022-09-12T06:40:02.063Z,9888.00
2022-09-12T06:41:02.050Z,11200.00
2022-09-12T06:42:04.474Z,18528.00
2022-09-12T06:43:06.703Z,11544.00
2022-09-12T06:44:08.851Z,18144.00
2022-09-12T06:45:10.979Z,19488.00
2022-09-12T06:46:12.041Z,19200.00
2022-09-12T06:47:13.032Z,18880.00
2022-09-12T06:48:14.211Z,19552.00
2022-09-12T06:49:16.333Z,20224.00
2022-09-12T06:50:18.485Z,20192.00
2022-09-12T06:51:20.597Z,21312.00
2022-09-12T06:52:22.732Z,14568.00
2022-09-12T06:53:24.851Z,13128.00
2022-09-12T06:54:26.976Z,14640.00
2022-09-12T06:55:29.091Z,11888.00
2022-09-12T06:56:31.414Z,11700.00
2022-09-12T06:57:32.367Z,11944.00
2022-09-12T06:58:33.546Z,12552.00
2022-09-12T06:59:35.825Z,13028.00
2022-09-12T07:00:37.014Z,12912.00
2022-09-12T07:01:39.302Z,12904.00
2022-09-12T07:02:47.575Z,12084.00
2022-09-12T07:03:42.690Z,11644.00
2022-09-12T07:04:51.122Z,12136.00
2022-09-12T07:05:46.283Z,12388.00
2022-09-12T07:06:48.456Z,12148.00
2022-09-12T07:07:50.593Z,12568.00
2022-09-12T07:08:52.752Z,14012.00
2022-09-12T07:09:54.912Z,12688.00
2022-09-12T07:10:57.055Z,14424.00
2022-09-12T07:11:59.218Z,12648.00
2022-09-12T07:13:01.375Z,12684.00
2022-09-12T07:14:08.691Z,14340.00
2022-09-12T07:15:03.818Z,12864.00
2022-09-12T07:16:05.945Z,14156.00
2022-09-12T07:17:08.126Z,13744.00
2022-09-12T07:18:09.138Z,17344.00
2022-09-12T07:19:10.297Z,13364.00
2022-09-12T07:20:11.649Z,22240.00
2022-09-12T07:21:13.797Z,14384.00
2022-09-12T07:22:15.894Z,22688.00
2022-09-12T07:23:18.122Z,21024.00
2022-09-12T07:24:20.323Z,13916.00
2022-09-12T07:25:22.445Z,14304.00
2022-09-12T07:26:23.422Z,23776.00
2022-09-12T07:27:25.766Z,18496.00
2022-09-12T07:28:26.954Z,14408.00
2022-09-12T07:29:37.501Z,14332.00
2022-09-12T07:30:31.068Z,13988.00
2022-09-12T07:31:32.446Z,14224.00
2022-09-12T07:32:33.706Z,28320.00
2022-09-12T07:33:35.174Z,16152.00
2022-09-12T07:34:36.171Z,13968.00
2022-09-12T07:35:37.350Z,13876.00
2022-09-12T07:36:39.483Z,13080.00
2022-09-12T07:37:46.858Z,15360.00
2022-09-12T07:38:42.056Z,13732.00
2022-09-12T07:39:46.315Z,13516.00
2022-09-12T07:40:46.444Z,13588.00
2022-09-12T07:41:47.717Z,17120.00
2022-09-12T07:42:49.847Z,13100.00
2022-09-12T07:43:52.050Z,12376.00
2022-09-12T07:44:52.969Z,12864.00
2022-09-12T07:45:55.152Z,18688.00
2022-09-12T07:46:57.283Z,10988.00
2022-09-12T07:47:59.399Z,10272.00
2022-09-12T07:49:08.470Z,24064.00
2022-09-12T07:50:09.138Z,14624.00
2022-09-12T07:51:04.455Z,10912.00
2022-09-12T07:52:06.588Z,10580.00
2022-09-12T07:53:07.547Z,12756.00
2022-09-12T07:54:08.534Z,13812.00
2022-09-12T07:55:10.662Z,28192.00
2022-09-12T07:56:18.839Z,29088.00
2022-09-12T07:57:14.188Z,12172.00
2022-09-12T07:58:15.139Z,11872.00
2022-09-12T07:59:25.519Z,11084.00
2022-09-12T08:00:18.519Z,12148.00
2022-09-12T08:01:24.733Z,14488.00
2022-09-12T08:02:20.191Z,30368.00
2022-09-12T08:03:21.291Z,18304.00
2022-09-12T08:04:22.524Z,34560.00
2022-09-12T08:05:23.745Z,30560.00
2022-09-12T08:06:24.923Z,20864.00
2022-09-12T08:07:27.065Z,14892.00
2022-09-12T08:08:29.190Z,30976.00
2022-09-12T08:09:30.385Z,32544.00
2022-09-12T08:10:32.506Z,32224.00
2022-09-12T08:11:34.633Z,32608.00
2022-09-12T08:12:36.769Z,32448.00
2022-09-12T08:13:38.150Z,33024.00
2022-09-12T08:14:40.294Z,35040.00
2022-09-12T08:15:42.509Z,35264.00
2022-09-12T08:16:43.513Z,35552.00
2022-09-12T08:17:45.610Z,35360.00
2022-09-12T08:18:46.876Z,36032.00
2022-09-12T08:19:47.828Z,36928.00
2022-09-12T08:20:50.014Z,38016.00
2022-09-12T08:21:52.335Z,37472.00
2022-09-12T08:22:53.390Z,38112.00
2022-09-12T08:23:55.493Z,37600.00
2022-09-12T08:24:57.678Z,37120.00
2022-09-12T08:26:02.173Z,37472.00
2022-09-12T08:27:07.122Z,37856.00
2022-09-12T08:28:02.478Z,37824.00
2022-09-12T08:29:04.649Z,36864.00
2022-09-12T08:30:06.797Z,37504.00
2022-09-12T08:31:09.065Z,39328.00
2022-09-12T08:32:10.236Z,38400.00
2022-09-12T08:33:12.363Z,40320.00
2022-09-12T08:34:14.490Z,40864.00
2022-09-12T08:35:15.672Z,41312.00
2022-09-12T08:36:16.646Z,42016.00
2022-09-12T08:37:18.741Z,41888.00
2022-09-12T08:38:20.875Z,42080.00
2022-09-12T08:39:23.010Z,42528.00
2022-09-12T08:40:25.171Z,41344.00
2022-09-12T08:41:26.735Z,41152.00
2022-09-12T08:42:28.866Z,43200.00
2022-09-12T08:43:30.487Z,44416.00
2022-09-12T08:44:31.407Z,44640.00
2022-09-12T08:45:33.530Z,44448.00
2022-09-12T08:46:35.645Z,45344.00
2022-09-12T08:47:37.767Z,43392.00
2022-09-12T08:48:39.893Z,42432.00
2022-09-12T08:49:41.236Z,35520.00
2022-09-12T08:50:47.906Z,43360.00
2022-09-12T08:51:45.617Z,38304.00
2022-09-12T08:52:46.687Z,14176.00
2022-09-12T08:53:47.911Z,25536.00
2022-09-12T08:54:48.948Z,40352.00
2022-09-12T08:55:51.157Z,46464.00
2022-09-12T08:56:52.124Z,49472.00
2022-09-12T08:57:54.351Z,48320.00
2022-09-12T08:58:55.301Z,45216.00
2022-09-12T08:59:57.418Z,31840.00
2022-09-12T09:00:59.585Z,19136.00
2022-09-12T09:02:01.864Z,48640.00
2022-09-12T09:03:02.868Z,48512.00
2022-09-12T09:04:05.041Z,47232.00
2022-09-12T09:05:07.158Z,47712.00
2022-09-12T09:06:09.319Z,46720.00
2022-09-12T09:07:11.406Z,48384.00
2022-09-12T09:08:12.378Z,49568.00
2022-09-12T09:09:14.507Z,50720.00
2022-09-12T09:10:16.630Z,50816.00
2022-09-12T09:11:18.880Z,51968.00
2022-09-12T09:12:19.935Z,52544.00
2022-09-12T09:13:22.063Z,52864.00
2022-09-12T09:14:24.188Z,34112.00
2022-09-12T09:15:32.368Z,18336.00
2022-09-12T09:16:27.559Z,51616.00
2022-09-12T09:17:29.682Z,54240.00
2022-09-12T09:18:31.813Z,50912.00
2022-09-12T09:19:33.265Z,46016.00
2022-09-12T09:20:34.269Z,50112.00
2022-09-12T09:21:36.429Z,51456.00
2022-09-12T09:22:38.547Z,50080.00
2022-09-12T09:23:40.705Z,51616.00
2022-09-12T09:24:42.890Z,47520.00
2022-09-12T09:25:43.926Z,19040.00
2022-09-12T09:26:45.113Z,24960.00
2022-09-12T09:27:47.294Z,21632.00
2022-09-12T09:28:48.335Z,21056.00
2022-09-12T09:29:50.540Z,20960.00
2022-09-12T09:30:51.560Z,48864.00
2022-09-12T09:31:53.689Z,32192.00
2022-09-12T09:32:55.820Z,54272.00
2022-09-12T09:33:57.933Z,42144.00
2022-09-12T09:35:00.063Z,62208.00
2022-09-12T09:36:01.452Z,62336.00
2022-09-12T09:37:02.408Z,61024.00
2022-09-12T09:38:04.526Z,54848.00
2022-09-12T09:39:06.656Z,57088.00
2022-09-12T09:40:08.974Z,44416.00
2022-09-12T09:41:11.168Z,41632.00
2022-09-12T09:42:13.283Z,21824.00
2022-09-12T09:43:15.386Z,12424.00
2022-09-12T09:44:17.505Z,16480.00
2022-09-12T09:45:19.650Z,7624.00
2022-09-12T09:46:21.848Z,6436.00
2022-09-12T09:47:24.031Z,6272.00
2022-09-12T09:48:25.217Z,6220.00
2022-09-12T09:49:27.350Z,5536.00
2022-09-12T09:50:29.474Z,4992.00
2022-09-12T09:51:31.670Z,4544.00
2022-09-12T09:52:32.726Z,4364.00
2022-09-12T09:53:34.165Z,4232.00
2022-09-12T09:54:35.370Z,4284.00
2022-09-12T09:55:37.522Z,4492.00
2022-09-12T09:56:45.029Z,4756.00
2022-09-12T09:57:40.177Z,4840.00
2022-09-12T09:58:42.332Z,4808.00
2022-09-12T09:59:44.467Z,4636.00
2022-09-12T10:00:46.587Z,4820.00
2022-09-12T10:01:47.920Z,4952.00
2022-09-12T10:02:49.085Z,4968.00
2022-09-12T10:03:50.302Z,5104.00
2022-09-12T10:04:51.258Z,5720.00
2022-09-12T10:05:53.381Z,6360.00
2022-09-12T10:06:55.531Z,6876.00
2022-09-12T10:07:57.751Z,7552.00
2022-09-12T10:09:00.327Z,7820.00
2022-09-12T10:10:01.295Z,8276.00
2022-09-12T10:11:03.669Z,8680.00
2022-09-12T10:12:04.771Z,24512.00
2022-09-12T10:13:05.876Z,41312.00
2022-09-12T10:14:07.055Z,28128.00
2022-09-12T10:15:08.028Z,24768.00
2022-09-12T10:16:09.085Z,13432.00
2022-09-12T10:17:11.260Z,13552.00
2022-09-12T10:18:15.529Z,14340.00
2022-09-12T10:19:15.575Z,53216.00
2022-09-12T10:20:21.580Z,52928.00
2022-09-12T10:21:19.717Z,40544.00
2022-09-12T10:22:22.745Z,9892.00
2022-09-12T10:23:22.552Z,9268.00
2022-09-12T10:24:24.688Z,8656.00
2022-09-12T10:25:26.843Z,8540.00
2022-09-12T10:26:29.017Z,8724.00
2022-09-12T10:27:31.154Z,8980.00
2022-09-12T10:28:33.319Z,9520.00
2022-09-12T10:29:34.607Z,11440.00
2022-09-12T10:30:35.664Z,19456.00
2022-09-12T10:31:37.839Z,13048.00
2022-09-12T10:32:39.960Z,24640.00
2022-09-12T10:33:42.173Z,22144.00
2022-09-12T10:34:43.326Z,13192.00
2022-09-12T10:35:45.500Z,58848.00
2022-09-12T10:36:47.644Z,35008.00
2022-09-12T10:37:52.292Z,51168.00
2022-09-12T10:38:52.257Z,11176.00
2022-09-12T10:39:54.480Z,10920.00
2022-09-12T10:40:56.705Z,11252.00
2022-09-12T10:41:58.908Z,12144.00
2022-09-12T10:43:01.116Z,59552.00
2022-09-12T10:44:02.036Z,56128.00
2022-09-12T10:45:10.218Z,55776.00
2022-09-12T10:46:05.358Z,55360.00
2022-09-12T10:47:07.725Z,59552.00
2022-09-12T10:48:08.682Z,54816.00
2022-09-12T10:49:10.783Z,54848.00
2022-09-12T10:50:22.356Z,57728.00
2022-09-12T10:51:15.160Z,56992.00
2022-09-12T10:52:16.484Z,57888.00
2022-09-12T10:53:17.479Z,54592.00
2022-09-12T10:54:19.627Z,57184.00
2022-09-12T10:55:21.985Z,54592.00
2022-09-12T10:56:24.081Z,52960.00
2022-09-12T10:57:26.230Z,53184.00
2022-09-12T10:58:28.376Z,49568.00
2022-09-12T10:59:30.513Z,57088.00
2022-09-12T11:00:32.669Z,55584.00
2022-09-12T11:01:35.130Z,54432.00
2022-09-12T11:02:36.146Z,51712.00
2022-09-12T11:03:38.311Z,52480.00
2022-09-12T11:04:40.502Z,54336.00
2022-09-12T11:05:42.656Z,54912.00
2022-09-12T11:06:43.613Z,56672.00
2022-09-12T11:07:45.952Z,56832.00
2022-09-12T11:08:46.912Z,58560.00
2022-09-12T11:09:49.124Z,60096.00
2022-09-12T11:10:50.051Z,61408.00
2022-09-12T11:11:52.192Z,44256.00
2022-09-12T11:12:54.405Z,41280.00
2022-09-12T11:13:56.539Z,52352.00
2022-09-12T11:14:58.671Z,54336.00
2022-09-12T11:16:00.851Z,19584.00
2022-09-12T11:17:02.163Z,35360.00
2022-09-12T11:18:04.281Z,13368.00
2022-09-12T11:19:06.490Z,13004.00
2022-09-12T11:20:08.609Z,18176.00
2022-09-12T11:21:10.737Z,15040.00
2022-09-12T11:22:12.867Z,15080.00
2022-09-12T11:23:14.985Z,21056.00
2022-09-12T11:24:17.117Z,28928.00
2022-09-12T11:25:19.254Z,48256.00
2022-09-12T11:26:21.471Z,48800.00
2022-09-12T11:27:23.680Z,48256.00
2022-09-12T11:28:25.829Z,51744.00
2022-09-12T11:29:28.111Z,52320.00
2022-09-12T11:30:29.101Z,52960.00
2022-09-12T11:31:31.281Z,56160.00
2022-09-12T11:32:33.420Z,50400.00
2022-09-12T11:33:39.650Z,53376.00
2022-09-12T11:34:38.128Z,53248.00
2022-09-12T11:35:37.936Z,53344.00
2022-09-12T11:36:40.065Z,49568.00
2022-09-12T11:37:42.321Z,45280.00
2022-09-12T11:38:44.507Z,50208.00
2022-09-12T11:39:46.815Z,31712.00
2022-09-12T11:40:47.918Z,52768.00
2022-09-12T11:41:50.054Z,51776.00
2022-09-12T11:42:51.087Z,52768.00
2022-09-12T11:43:53.238Z,53728.00
2022-09-12T11:44:55.381Z,50016.00
2022-09-12T11:45:57.607Z,52800.00
2022-09-12T11:46:59.748Z,53408.00
2022-09-12T11:48:01.887Z,56320.00
2022-09-12T11:49:04.043Z,56096.00
2022-09-12T11:50:06.133Z,56000.00
2022-09-12T11:51:08.265Z,62656.00
2022-09-12T11:52:10.430Z,58304.00
2022-09-12T11:53:12.552Z,54912.00
2022-09-12T11:54:14.724Z,61664.00
2022-09-12T11:55:16.850Z,65216.00
2022-09-12T11:56:19.004Z,60128.00
2022-09-12T11:57:21.101Z,60512.00
2022-09-12T11:58:22.059Z,56224.00
2022-09-12T11:59:24.299Z,54752.00
2022-09-12T12:00:25.275Z,54336.00
2022-09-12T12:01:27.444Z,52832.00
2022-09-12T12:02:29.624Z,47456.00
2022-09-12T12:03:31.858Z,47968.00
2022-09-12T12:04:34.030Z,50688.00
2022-09-12T12:05:35.207Z,50816.00
2022-09-12T12:06:37.376Z,50752.00
2022-09-12T12:07:44.658Z,53856.00
2022-09-12T12:08:41.908Z,54400.00
2022-09-12T12:09:41.917Z,53312.00
2022-09-12T12:10:44.188Z,52032.00
2022-09-12T12:11:45.155Z,49536.00
2022-09-12T12:12:49.531Z,47520.00
2022-09-12T12:13:49.388Z,45376.00
2022-09-12T12:14:51.531Z,45504.00
2022-09-12T12:15:53.746Z,41856.00
2022-09-12T12:16:54.856Z,43808.00
2022-09-12T12:17:56.981Z,38528.00
2022-09-12T12:18:59.106Z,34784.00
2022-09-12T12:20:08.580Z,21120.00
2022-09-12T12:21:03.023Z,13648.00
2022-09-12T12:22:05.154Z,12424.00
2022-09-12T12:23:07.635Z,11984.00
2022-09-12T12:24:08.640Z,11736.00
2022-09-12T12:25:10.741Z,11452.00
2022-09-12T12:26:12.922Z,11056.00
2022-09-12T12:27:15.167Z,10364.00
2022-09-12T12:28:16.973Z,9880.00
2022-09-12T12:29:19.060Z,9616.00
2022-09-12T12:30:21.205Z,9920.00
2022-09-12T12:31:23.397Z,10448.00
2022-09-12T12:32:25.593Z,10032.00
2022-09-12T12:33:27.723Z,10176.00
2022-09-12T12:34:29.814Z,9812.00
2022-09-12T12:35:31.990Z,9528.00
2022-09-12T12:36:34.127Z,9360.00
2022-09-12T12:37:35.374Z,8812.00
2022-09-12T12:38:37.510Z,8472.00
2022-09-12T12:39:39.739Z,8156.00
2022-09-12T12:40:41.959Z,7832.00
2022-09-12T12:41:44.093Z,7680.00
2022-09-12T12:42:46.229Z,8592.00
2022-09-12T12:43:48.357Z,9336.00
2022-09-12T12:44:50.627Z,10280.00
2022-09-12T12:45:51.874Z,10884.00
2022-09-12T12:46:53.051Z,11056.00
2022-09-12T12:47:55.154Z,11544.00
2022-09-12T12:49:02.857Z,11416.00
2022-09-12T12:49:58.163Z,11412.00
2022-09-12T12:51:00.291Z,11072.00
2022-09-12T12:52:01.522Z,10628.00
2022-09-12T12:53:03.833Z,10088.00
2022-09-12T12:54:09.805Z,9528.00
2022-09-12T12:55:08.238Z,9012.00
2022-09-12T12:56:09.201Z,8624.00
2022-09-12T12:57:10.423Z,8420.00
2022-09-12T12:58:18.650Z,8228.00
2022-09-12T12:59:13.932Z,7988.00
2022-09-12T13:00:15.025Z,7692.00
2022-09-12T13:01:17.236Z,7748.00
2022-09-12T13:02:18.262Z,7632.00
2022-09-12T13:03:20.407Z,7500.00
2022-09-12T13:04:22.554Z,7412.00
2022-09-12T13:05:24.749Z,7340.00
2022-09-12T13:06:26.949Z,7304.00
2022-09-12T13:07:29.076Z,7256.00
2022-09-12T13:08:31.230Z,7352.00
2022-09-12T13:09:33.437Z,7352.00
2022-09-12T13:10:35.654Z,7420.00
2022-09-12T13:11:37.804Z,7516.00
2022-09-12T13:12:38.765Z,7588.00
2022-09-12T13:13:41.250Z,7632.00
2022-09-12T13:14:42.439Z,7596.00
2022-09-12T13:15:44.541Z,7652.00
2022-09-12T13:16:46.739Z,8840.00
2022-09-12T13:17:49.021Z,8888.00
2022-09-12T13:18:50.223Z,8944.00
2022-09-12T13:20:10.630Z,8940.00
2022-09-12T13:20:54.546Z,8888.00
2022-09-12T13:21:55.517Z,8864.00
2022-09-12T13:22:57.646Z,8832.00
2022-09-12T13:23:59.764Z,8792.00
2022-09-12T13:25:01.898Z,8792.00
2022-09-12T13:26:04.037Z,8816.00
2022-09-12T13:27:06.199Z,8864.00
2022-09-12T13:28:08.362Z,8900.00
2022-09-12T13:29:10.489Z,8920.00
2022-09-12T13:30:12.775Z,8844.00
2022-09-12T13:31:13.718Z,8812.00
2022-09-12T13:32:15.898Z,8856.00
2022-09-12T13:33:16.982Z,8960.00
2022-09-12T13:34:19.245Z,9000.00
2022-09-12T13:35:20.164Z,9028.00
2022-09-12T13:36:22.292Z,9280.00
2022-09-12T13:37:24.422Z,9372.00
2022-09-12T13:38:26.564Z,9448.00
2022-09-12T13:39:28.663Z,9508.00
2022-09-12T13:40:30.961Z,9552.00
2022-09-12T13:41:33.065Z,8304.00
